TVF21TN LFPO-LJLJ
Flight info
| Callsign | TVF21TN |
|---|---|
| Flight time | 1h 24m |
| Altitude | 23000 |
| Route | BUBLI DCT LUVAL/N0443F330 DCT MIRGU DCT BEGAR DCT TRA/N0446F350 DCT GAMSA DCT GEDSO DCT DEGUM |
| Aircraft | B738/M-SDFGHIJ1RWXY/LB1 |
Departure
| Time | 2026-05-05 15:50 |
|---|---|
| Airport | Paris-Orly Airport (LFPO) |
Arrival
| Time | 2026-05-05 17:14 |
|---|---|
| Airport | Ljubljana Jože Pučnik Airport (LJLJ) |
| Time | Latitude | Longitude | Altitude | Speed | Heading |
|---|---|---|---|---|---|
| 2026-05-05 14:48 | 48.72836 | 2.37478 | 295 ft | 0 kts | 346° |
| 2026-05-05 15:40 | 48.72825 | 2.37481 | 296 ft | 4 kts | 346° |
| 2026-05-05 15:41 | 48.72799 | 2.37490 | 300 ft | 3 kts | 346° |
| 2026-05-05 15:41 | 48.72778 | 2.37499 | 298 ft | 4 kts | 330° |
| 2026-05-05 15:41 | 48.72764 | 2.37522 | 300 ft | 4 kts | 262° |
| 2026-05-05 15:41 | 48.72769 | 2.37557 | 299 ft | 2 kts | 255° |
| 2026-05-05 15:42 | 48.72770 | 2.37558 | 300 ft | 1 kts | 255° |
| 2026-05-05 15:43 | 48.72769 | 2.37557 | 299 ft | 1 kts | 255° |
| 2026-05-05 15:43 | 48.72764 | 2.37524 | 300 ft | 5 kts | 255° |
| 2026-05-05 15:44 | 48.72752 | 2.37462 | 296 ft | 8 kts | 254° |
| 2026-05-05 15:44 | 48.72733 | 2.37361 | 299 ft | 12 kts | 253° |
| 2026-05-05 15:44 | 48.72708 | 2.37227 | 296 ft | 14 kts | 251° |
| 2026-05-05 15:44 | 48.72633 | 2.37179 | 295 ft | 13 kts | 178° |
| 2026-05-05 15:45 | 48.72581 | 2.37085 | 297 ft | 13 kts | 255° |
| 2026-05-05 15:45 | 48.72557 | 2.36959 | 299 ft | 12 kts | 254° |
| 2026-05-05 15:45 | 48.72532 | 2.36823 | 295 ft | 15 kts | 255° |
| 2026-05-05 15:45 | 48.72504 | 2.36675 | 295 ft | 14 kts | 254° |
| 2026-05-05 15:46 | 48.72478 | 2.36533 | 294 ft | 14 kts | 255° |
| 2026-05-05 15:46 | 48.72453 | 2.36397 | 295 ft | 13 kts | 254° |
| 2026-05-05 15:46 | 48.72429 | 2.36266 | 299 ft | 13 kts | 255° |
| 2026-05-05 15:46 | 48.72405 | 2.36133 | 294 ft | 14 kts | 253° |
| 2026-05-05 15:47 | 48.72378 | 2.35988 | 295 ft | 15 kts | 254° |
| 2026-05-05 15:47 | 48.72358 | 2.35884 | 299 ft | 15 kts | 255° |
| 2026-05-05 15:47 | 48.72322 | 2.35689 | 296 ft | 14 kts | 251° |
| 2026-05-05 15:47 | 48.72252 | 2.35600 | 296 ft | 14 kts | 182° |
| 2026-05-05 15:48 | 48.72162 | 2.35627 | 295 ft | 13 kts | 168° |
| 2026-05-05 15:48 | 48.72079 | 2.35674 | 298 ft | 13 kts | 149° |
| 2026-05-05 15:48 | 48.72021 | 2.35770 | 296 ft | 12 kts | 121° |
| 2026-05-05 15:48 | 48.71979 | 2.35881 | 297 ft | 12 kts | 120° |
| 2026-05-05 15:49 | 48.71967 | 2.35999 | 296 ft | 12 kts | 74° |
| 2026-05-05 15:49 | 48.72028 | 2.36325 | 297 ft | 65 kts | 75° |
| 2026-05-05 15:49 | 48.72210 | 2.37319 | 297 ft | 129 kts | 73° |
| 2026-05-05 15:49 | 48.72487 | 2.38889 | 391 ft | 173 kts | 74° |
| 2026-05-05 15:50 | 48.72797 | 2.40618 | 1285 ft | 168 kts | 70° |
| 2026-05-05 15:50 | 48.73120 | 2.42316 | 2254 ft | 163 kts | 70° |
| 2026-05-05 15:50 | 48.73432 | 2.43971 | 3128 ft | 167 kts | 70° |
| 2026-05-05 15:50 | 48.73749 | 2.45694 | 3842 ft | 179 kts | 72° |
| 2026-05-05 15:51 | 48.74084 | 2.47682 | 4090 ft | 210 kts | 79° |
| 2026-05-05 15:51 | 48.74202 | 2.49988 | 4424 ft | 231 kts | 84° |
| 2026-05-05 15:51 | 48.74289 | 2.52488 | 4762 ft | 253 kts | 83° |
| 2026-05-05 15:51 | 48.74377 | 2.55218 | 5417 ft | 265 kts | 86° |
| 2026-05-05 15:52 | 48.74508 | 2.57993 | 6342 ft | 265 kts | 82° |
| 2026-05-05 15:52 | 48.74734 | 2.60782 | 7111 ft | 267 kts | 81° |
| 2026-05-05 15:52 | 48.74970 | 2.63583 | 7919 ft | 269 kts | 82° |
| 2026-05-05 15:52 | 48.75205 | 2.66435 | 8638 ft | 274 kts | 82° |
| 2026-05-05 15:53 | 48.75437 | 2.69301 | 9494 ft | 275 kts | 83° |
| 2026-05-05 15:53 | 48.75664 | 2.72210 | 10137 ft | 282 kts | 83° |
| 2026-05-05 15:53 | 48.75900 | 2.75280 | 10376 ft | 305 kts | 83° |
| 2026-05-05 15:53 | 48.76150 | 2.78534 | 10593 ft | 327 kts | 83° |
| 2026-05-05 15:54 | 48.76416 | 2.82022 | 10967 ft | 340 kts | 83° |
| 2026-05-05 15:54 | 48.76690 | 2.85626 | 11539 ft | 345 kts | 84° |
| 2026-05-05 15:54 | 48.76966 | 2.89246 | 12314 ft | 346 kts | 84° |
| 2026-05-05 15:54 | 48.77242 | 2.92904 | 12899 ft | 352 kts | 84° |
| 2026-05-05 15:55 | 48.77521 | 2.96618 | 13530 ft | 356 kts | 84° |
| 2026-05-05 15:55 | 48.77812 | 2.99924 | 14112 ft | 358 kts | 82° |
| 2026-05-05 15:55 | 48.78244 | 3.03656 | 14633 ft | 364 kts | 80° |
| 2026-05-05 15:55 | 48.78718 | 3.07455 | 15067 ft | 372 kts | 81° |
| 2026-05-05 15:56 | 48.79206 | 3.11363 | 15489 ft | 380 kts | 81° |
| 2026-05-05 15:56 | 48.79692 | 3.15315 | 16151 ft | 382 kts | 81° |
| 2026-05-05 15:56 | 48.80171 | 3.19289 | 16833 ft | 384 kts | 81° |
| 2026-05-05 15:56 | 48.80647 | 3.23294 | 17461 ft | 388 kts | 82° |
| 2026-05-05 15:57 | 48.81124 | 3.27339 | 18061 ft | 392 kts | 82° |
| 2026-05-05 15:57 | 48.81604 | 3.31428 | 18586 ft | 395 kts | 82° |
| 2026-05-05 15:57 | 48.82084 | 3.35537 | 19152 ft | 396 kts | 82° |
| 2026-05-05 15:57 | 48.82287 | 3.39685 | 19718 ft | 394 kts | 95° |
| 2026-05-05 15:58 | 48.82045 | 3.43831 | 20297 ft | 395 kts | 97° |
| 2026-05-05 15:58 | 48.81738 | 3.47955 | 20821 ft | 397 kts | 98° |
| 2026-05-05 15:58 | 48.81422 | 3.52124 | 21330 ft | 399 kts | 98° |
| 2026-05-05 15:58 | 48.81117 | 3.56319 | 21878 ft | 401 kts | 98° |
| 2026-05-05 15:59 | 48.80824 | 3.60541 | 22439 ft | 404 kts | 97° |
| 2026-05-05 15:59 | 48.80540 | 3.64789 | 22989 ft | 405 kts | 97° |
| 2026-05-05 15:59 | 48.80265 | 3.68987 | 23465 ft | 407 kts | 97° |
| 2026-05-05 15:59 | 48.79986 | 3.73273 | 23836 ft | 409 kts | 97° |
| 2026-05-05 16:00 | 48.79706 | 3.77573 | 24232 ft | 411 kts | 97° |
| 2026-05-05 16:00 | 48.79423 | 3.81898 | 24644 ft | 413 kts | 97° |
| 2026-05-05 16:00 | 48.79137 | 3.86244 | 25023 ft | 415 kts | 97° |
| 2026-05-05 16:00 | 48.78848 | 3.90604 | 25394 ft | 417 kts | 97° |
| 2026-05-05 16:01 | 48.78556 | 3.94988 | 25780 ft | 419 kts | 97° |
| 2026-05-05 16:01 | 48.78261 | 3.99386 | 26132 ft | 421 kts | 97° |
| 2026-05-05 16:01 | 48.77963 | 4.03814 | 26482 ft | 423 kts | 97° |
| 2026-05-05 16:01 | 48.77662 | 4.08254 | 26827 ft | 425 kts | 97° |
| 2026-05-05 16:02 | 48.77317 | 4.12710 | 27166 ft | 426 kts | 102° |
| 2026-05-05 16:02 | 48.76340 | 4.16935 | 27494 ft | 426 kts | 120° |
| 2026-05-05 16:02 | 48.74713 | 4.20671 | 27865 ft | 426 kts | 126° |
| 2026-05-05 16:02 | 48.72975 | 4.24317 | 28190 ft | 428 kts | 127° |
| 2026-05-05 16:03 | 48.71211 | 4.27969 | 28527 ft | 431 kts | 127° |
| 2026-05-05 16:03 | 48.69485 | 4.31551 | 28864 ft | 432 kts | 126° |
| 2026-05-05 16:03 | 48.67716 | 4.35245 | 29175 ft | 433 kts | 126° |
| 2026-05-05 16:03 | 48.65956 | 4.38945 | 29581 ft | 432 kts | 126° |
| 2026-05-05 16:04 | 48.64210 | 4.42630 | 30028 ft | 429 kts | 126° |
| 2026-05-05 16:04 | 48.62479 | 4.46291 | 30414 ft | 427 kts | 126° |
| 2026-05-05 16:04 | 48.60753 | 4.49940 | 30731 ft | 427 kts | 126° |
| 2026-05-05 16:04 | 48.59024 | 4.53593 | 31022 ft | 427 kts | 126° |
| 2026-05-05 16:05 | 48.57297 | 4.57237 | 31337 ft | 426 kts | 126° |
| 2026-05-05 16:05 | 48.55572 | 4.60870 | 31679 ft | 425 kts | 127° |
| 2026-05-05 16:05 | 48.53845 | 4.64502 | 31910 ft | 427 kts | 127° |
| 2026-05-05 16:05 | 48.52110 | 4.68146 | 32175 ft | 428 kts | 127° |
| 2026-05-05 16:06 | 48.50375 | 4.71785 | 32582 ft | 426 kts | 127° |
| 2026-05-05 16:06 | 48.48648 | 4.75402 | 32934 ft | 425 kts | 127° |
| 2026-05-05 16:06 | 48.46919 | 4.79019 | 33171 ft | 426 kts | 127° |
| 2026-05-05 16:06 | 48.45184 | 4.82643 | 33380 ft | 427 kts | 127° |
| 2026-05-05 16:07 | 48.43446 | 4.86268 | 33672 ft | 426 kts | 127° |
| 2026-05-05 16:07 | 48.41711 | 4.89883 | 33945 ft | 425 kts | 127° |
| 2026-05-05 16:07 | 48.39997 | 4.93448 | 34102 ft | 427 kts | 127° |
| 2026-05-05 16:07 | 48.38230 | 4.97121 | 34235 ft | 429 kts | 127° |
| 2026-05-05 16:08 | 48.36500 | 5.00710 | 34425 ft | 429 kts | 127° |
| 2026-05-05 16:08 | 48.34750 | 5.04340 | 34633 ft | 429 kts | 128° |
| 2026-05-05 16:08 | 48.32994 | 5.07975 | 34784 ft | 430 kts | 128° |
| 2026-05-05 16:09 | 48.29680 | 5.15559 | 34799 ft | 440 kts | 118° |
| 2026-05-05 16:09 | 48.27728 | 5.24302 | 34815 ft | 444 kts | 107° |
| 2026-05-05 16:10 | 48.26225 | 5.33285 | 34818 ft | 443 kts | 107° |
| 2026-05-05 16:10 | 48.24705 | 5.42247 | 34809 ft | 443 kts | 107° |
| 2026-05-05 16:11 | 48.23150 | 5.51178 | 34818 ft | 442 kts | 107° |
| 2026-05-05 16:12 | 48.19991 | 5.69004 | 34809 ft | 441 kts | 108° |
| 2026-05-05 16:13 | 48.16034 | 5.91088 | 34819 ft | 437 kts | 108° |
| 2026-05-05 16:13 | 48.14449 | 5.99861 | 34810 ft | 436 kts | 108° |
| 2026-05-05 16:14 | 48.11271 | 6.17324 | 34831 ft | 438 kts | 108° |
| 2026-05-05 16:15 | 48.08031 | 6.34961 | 34849 ft | 442 kts | 108° |
| 2026-05-05 16:16 | 48.04741 | 6.52705 | 34840 ft | 444 kts | 108° |
| 2026-05-05 16:17 | 48.02249 | 6.66038 | 34851 ft | 445 kts | 109° |
| 2026-05-05 16:18 | 48.00383 | 6.79657 | 34851 ft | 448 kts | 102° |
| 2026-05-05 16:19 | 47.99011 | 6.91849 | 34842 ft | 447 kts | 103° |
| 2026-05-05 16:19 | 47.97371 | 7.05538 | 34835 ft | 447 kts | 104° |
| 2026-05-05 16:20 | 47.95123 | 7.23794 | 34808 ft | 448 kts | 104° |
| 2026-05-05 16:22 | 47.92271 | 7.46653 | 34836 ft | 450 kts | 104° |
| 2026-05-05 16:23 | 47.89343 | 7.64728 | 34823 ft | 447 kts | 115° |
| 2026-05-05 16:23 | 47.85956 | 7.77678 | 34861 ft | 448 kts | 115° |
| 2026-05-05 16:24 | 47.83718 | 7.86367 | 34843 ft | 450 kts | 114° |
| 2026-05-05 16:25 | 47.80399 | 7.99409 | 34844 ft | 452 kts | 114° |
| 2026-05-05 16:25 | 47.77037 | 8.12569 | 34855 ft | 452 kts | 115° |
| 2026-05-05 16:26 | 47.72578 | 8.29890 | 34841 ft | 451 kts | 115° |
| 2026-05-05 16:27 | 47.70336 | 8.38555 | 34833 ft | 450 kts | 115° |
| 2026-05-05 16:27 | 47.68139 | 8.47145 | 34858 ft | 450 kts | 114° |
| 2026-05-05 16:28 | 47.66140 | 8.55963 | 34870 ft | 451 kts | 112° |
| 2026-05-05 16:28 | 47.64212 | 8.64680 | 34873 ft | 452 kts | 112° |
| 2026-05-05 16:29 | 47.62215 | 8.73537 | 34873 ft | 453 kts | 113° |
| 2026-05-05 16:29 | 47.60187 | 8.82400 | 34837 ft | 455 kts | 113° |
| 2026-05-05 16:30 | 47.58148 | 8.91251 | 34857 ft | 456 kts | 114° |
| 2026-05-05 16:30 | 47.56098 | 9.00115 | 34847 ft | 457 kts | 114° |
| 2026-05-05 16:31 | 47.54050 | 9.08939 | 34854 ft | 458 kts | 114° |
| 2026-05-05 16:31 | 47.51988 | 9.17785 | 34851 ft | 460 kts | 114° |
| 2026-05-05 16:32 | 47.49894 | 9.26737 | 34840 ft | 461 kts | 114° |
| 2026-05-05 16:32 | 47.47819 | 9.35568 | 34850 ft | 462 kts | 114° |
| 2026-05-05 16:33 | 47.45701 | 9.44549 | 34853 ft | 463 kts | 114° |
| 2026-05-05 16:33 | 47.43577 | 9.53523 | 34858 ft | 463 kts | 114° |
| 2026-05-05 16:34 | 47.41443 | 9.62503 | 34822 ft | 463 kts | 115° |
| 2026-05-05 16:34 | 47.39731 | 9.71689 | 34862 ft | 467 kts | 107° |
| 2026-05-05 16:35 | 47.38500 | 9.81060 | 34860 ft | 468 kts | 106° |
| 2026-05-05 16:35 | 47.37300 | 9.90480 | 34852 ft | 465 kts | 106° |
| 2026-05-05 16:36 | 47.36035 | 9.99833 | 34860 ft | 465 kts | 107° |
| 2026-05-05 16:36 | 47.34698 | 10.09173 | 34863 ft | 465 kts | 108° |
| 2026-05-05 16:37 | 47.33360 | 10.18538 | 34863 ft | 467 kts | 108° |
| 2026-05-05 16:37 | 47.32018 | 10.27936 | 34871 ft | 470 kts | 107° |
| 2026-05-05 16:38 | 47.30666 | 10.37372 | 34869 ft | 472 kts | 108° |
| 2026-05-05 16:38 | 47.29307 | 10.46789 | 34848 ft | 474 kts | 107° |
| 2026-05-05 16:39 | 47.27933 | 10.56276 | 34848 ft | 474 kts | 108° |
| 2026-05-05 16:39 | 47.26550 | 10.65761 | 34846 ft | 473 kts | 108° |
| 2026-05-05 16:40 | 47.25164 | 10.75202 | 34831 ft | 471 kts | 108° |
| 2026-05-05 16:40 | 47.23778 | 10.84599 | 34826 ft | 468 kts | 107° |
| 2026-05-05 16:41 | 47.22391 | 10.93927 | 34841 ft | 465 kts | 107° |
| 2026-05-05 16:41 | 47.21001 | 11.03209 | 34850 ft | 464 kts | 107° |
| 2026-05-05 16:42 | 47.19615 | 11.12442 | 34822 ft | 459 kts | 107° |
| 2026-05-05 16:42 | 47.18232 | 11.21583 | 34838 ft | 462 kts | 107° |
| 2026-05-05 16:43 | 47.16811 | 11.30873 | 34867 ft | 469 kts | 107° |
| 2026-05-05 16:43 | 47.15375 | 11.40250 | 34865 ft | 471 kts | 107° |
| 2026-05-05 16:44 | 47.13932 | 11.49643 | 34876 ft | 472 kts | 107° |
| 2026-05-05 16:44 | 47.12474 | 11.59063 | 34870 ft | 473 kts | 107° |
| 2026-05-05 16:45 | 47.11009 | 11.68477 | 34866 ft | 472 kts | 107° |
| 2026-05-05 16:45 | 47.09572 | 11.77661 | 34891 ft | 469 kts | 107° |
| 2026-05-05 16:46 | 47.08058 | 11.86871 | 34896 ft | 464 kts | 111° |
| 2026-05-05 16:46 | 47.06878 | 11.91217 | 34878 ft | 453 kts | 119° |
| 2026-05-05 16:46 | 47.05592 | 11.95161 | 34569 ft | 450 kts | 120° |
| 2026-05-05 16:47 | 47.04223 | 11.99249 | 34215 ft | 444 kts | 121° |
| 2026-05-05 16:47 | 47.02860 | 12.03296 | 33824 ft | 441 kts | 121° |
| 2026-05-05 16:47 | 47.01514 | 12.07313 | 33391 ft | 438 kts | 121° |
| 2026-05-05 16:47 | 47.00281 | 12.11018 | 33023 ft | 434 kts | 121° |
| 2026-05-05 16:48 | 46.98971 | 12.14978 | 32625 ft | 431 kts | 120° |
| 2026-05-05 16:48 | 46.97673 | 12.18916 | 32284 ft | 428 kts | 120° |
| 2026-05-05 16:48 | 46.96387 | 12.22820 | 31911 ft | 425 kts | 120° |
| 2026-05-05 16:48 | 46.95109 | 12.26701 | 31528 ft | 422 kts | 120° |
| 2026-05-05 16:49 | 46.93838 | 12.30556 | 31127 ft | 418 kts | 120° |
| 2026-05-05 16:49 | 46.92585 | 12.34355 | 30801 ft | 413 kts | 120° |
| 2026-05-05 16:49 | 46.91399 | 12.37944 | 30426 ft | 411 kts | 120° |
| 2026-05-05 16:49 | 46.90286 | 12.41304 | 30089 ft | 409 kts | 120° |
| 2026-05-05 16:50 | 46.89051 | 12.45026 | 29679 ft | 406 kts | 120° |
| 2026-05-05 16:50 | 46.87824 | 12.48721 | 29271 ft | 402 kts | 120° |
| 2026-05-05 16:50 | 46.86611 | 12.52371 | 28905 ft | 396 kts | 120° |
| 2026-05-05 16:50 | 46.85408 | 12.55970 | 28510 ft | 392 kts | 120° |
| 2026-05-05 16:51 | 46.84223 | 12.59524 | 28161 ft | 386 kts | 121° |
| 2026-05-05 16:51 | 46.83052 | 12.63034 | 27779 ft | 383 kts | 121° |
| 2026-05-05 16:51 | 46.81903 | 12.66471 | 27417 ft | 381 kts | 121° |
| 2026-05-05 16:51 | 46.80751 | 12.69913 | 27040 ft | 380 kts | 121° |
| 2026-05-05 16:52 | 46.79593 | 12.73364 | 26649 ft | 378 kts | 120° |
| 2026-05-05 16:52 | 46.78444 | 12.76786 | 26287 ft | 375 kts | 120° |
| 2026-05-05 16:52 | 46.77283 | 12.80240 | 25935 ft | 373 kts | 120° |
| 2026-05-05 16:52 | 46.76160 | 12.83577 | 25576 ft | 370 kts | 121° |
| 2026-05-05 16:53 | 46.75029 | 12.86922 | 25250 ft | 367 kts | 121° |
| 2026-05-05 16:53 | 46.73903 | 12.90256 | 24892 ft | 365 kts | 120° |
| 2026-05-05 16:53 | 46.72782 | 12.93577 | 24559 ft | 364 kts | 120° |
| 2026-05-05 16:53 | 46.71668 | 12.96874 | 24198 ft | 362 kts | 121° |
| 2026-05-05 16:54 | 46.70559 | 13.00149 | 23866 ft | 362 kts | 120° |
| 2026-05-05 16:54 | 46.69441 | 13.03443 | 23486 ft | 362 kts | 121° |
| 2026-05-05 16:54 | 46.68325 | 13.06728 | 23087 ft | 361 kts | 121° |
| 2026-05-05 16:54 | 46.67213 | 13.09995 | 22698 ft | 360 kts | 120° |
| 2026-05-05 16:55 | 46.66105 | 13.13252 | 22343 ft | 358 kts | 120° |
| 2026-05-05 16:55 | 46.65002 | 13.16488 | 21994 ft | 356 kts | 120° |
| 2026-05-05 16:55 | 46.63902 | 13.19711 | 21637 ft | 355 kts | 120° |
| 2026-05-05 16:55 | 46.62808 | 13.22914 | 21287 ft | 353 kts | 120° |
| 2026-05-05 16:56 | 46.61718 | 13.26099 | 20943 ft | 351 kts | 120° |
| 2026-05-05 16:56 | 46.60633 | 13.29266 | 20606 ft | 349 kts | 121° |
| 2026-05-05 16:56 | 46.59552 | 13.32420 | 20261 ft | 348 kts | 121° |
| 2026-05-05 16:56 | 46.58477 | 13.35551 | 19909 ft | 345 kts | 121° |
| 2026-05-05 16:57 | 46.57406 | 13.38666 | 19602 ft | 345 kts | 121° |
| 2026-05-05 16:57 | 46.56326 | 13.41798 | 19242 ft | 348 kts | 121° |
| 2026-05-05 16:57 | 46.55237 | 13.44957 | 18902 ft | 351 kts | 121° |
| 2026-05-05 16:57 | 46.54131 | 13.48152 | 18551 ft | 355 kts | 120° |
| 2026-05-05 16:58 | 46.53021 | 13.51366 | 18145 ft | 359 kts | 120° |
| 2026-05-05 16:58 | 46.51903 | 13.54602 | 17773 ft | 357 kts | 120° |
| 2026-05-05 16:58 | 46.50790 | 13.57824 | 17399 ft | 356 kts | 120° |
| 2026-05-05 16:58 | 46.49684 | 13.61022 | 17029 ft | 354 kts | 120° |
| 2026-05-05 16:59 | 46.48579 | 13.64207 | 16677 ft | 352 kts | 121° |
| 2026-05-05 16:59 | 46.47479 | 13.67374 | 16338 ft | 350 kts | 121° |
| 2026-05-05 16:59 | 46.46387 | 13.70514 | 15977 ft | 349 kts | 120° |
| 2026-05-05 16:59 | 46.45364 | 13.73674 | 15622 ft | 349 kts | 118° |
| 2026-05-05 17:00 | 46.44368 | 13.76924 | 15241 ft | 349 kts | 117° |
| 2026-05-05 17:00 | 46.43397 | 13.80135 | 14909 ft | 347 kts | 116° |
| 2026-05-05 17:00 | 46.42426 | 13.83331 | 14537 ft | 347 kts | 117° |
| 2026-05-05 17:00 | 46.41452 | 13.86522 | 14216 ft | 344 kts | 117° |
| 2026-05-05 17:01 | 46.40479 | 13.89688 | 13847 ft | 345 kts | 117° |
| 2026-05-05 17:01 | 46.39502 | 13.92859 | 13481 ft | 344 kts | 117° |
| 2026-05-05 17:01 | 46.38525 | 13.96010 | 13111 ft | 342 kts | 117° |
| 2026-05-05 17:01 | 46.37555 | 13.99136 | 12755 ft | 341 kts | 117° |
| 2026-05-05 17:02 | 46.36585 | 14.02258 | 12412 ft | 339 kts | 117° |
| 2026-05-05 17:02 | 46.35619 | 14.05366 | 12057 ft | 337 kts | 118° |
| 2026-05-05 17:02 | 46.34658 | 14.08448 | 11735 ft | 335 kts | 118° |
| 2026-05-05 17:02 | 46.33701 | 14.11514 | 11400 ft | 333 kts | 118° |
| 2026-05-05 17:03 | 46.32746 | 14.14567 | 11080 ft | 333 kts | 118° |
| 2026-05-05 17:03 | 46.31803 | 14.17572 | 10726 ft | 331 kts | 118° |
| 2026-05-05 17:03 | 46.30844 | 14.20637 | 10411 ft | 330 kts | 118° |
| 2026-05-05 17:03 | 46.29916 | 14.23598 | 10235 ft | 324 kts | 118° |
| 2026-05-05 17:04 | 46.28996 | 14.26535 | 10057 ft | 317 kts | 118° |
| 2026-05-05 17:04 | 46.28096 | 14.29399 | 9943 ft | 309 kts | 119° |
| 2026-05-05 17:04 | 46.27213 | 14.32203 | 9557 ft | 310 kts | 118° |
| 2026-05-05 17:04 | 46.26323 | 14.35025 | 9267 ft | 308 kts | 118° |
| 2026-05-05 17:05 | 46.25434 | 14.37839 | 8948 ft | 308 kts | 118° |
| 2026-05-05 17:05 | 46.24548 | 14.40643 | 8634 ft | 306 kts | 118° |
| 2026-05-05 17:05 | 46.23528 | 14.43301 | 8315 ft | 298 kts | 137° |
| 2026-05-05 17:05 | 46.21986 | 14.45206 | 8066 ft | 288 kts | 148° |
| 2026-05-05 17:06 | 46.20408 | 14.46981 | 7772 ft | 287 kts | 147° |
| 2026-05-05 17:06 | 46.18854 | 14.48779 | 7487 ft | 286 kts | 146° |
| 2026-05-05 17:06 | 46.17832 | 14.49974 | 7302 ft | 285 kts | 146° |
| 2026-05-05 17:06 | 46.16296 | 14.51761 | 7038 ft | 283 kts | 146° |
| 2026-05-05 17:07 | 46.14758 | 14.53530 | 6756 ft | 282 kts | 147° |
| 2026-05-05 17:07 | 46.13241 | 14.55272 | 6616 ft | 275 kts | 147° |
| 2026-05-05 17:07 | 46.11767 | 14.56967 | 6488 ft | 268 kts | 147° |
| 2026-05-05 17:07 | 46.10329 | 14.58620 | 6366 ft | 261 kts | 147° |
| 2026-05-05 17:08 | 46.08932 | 14.60226 | 6249 ft | 253 kts | 147° |
| 2026-05-05 17:08 | 46.07570 | 14.61789 | 6068 ft | 249 kts | 147° |
| 2026-05-05 17:08 | 46.06284 | 14.63476 | 5767 ft | 256 kts | 128° |
| 2026-05-05 17:08 | 46.05779 | 14.65941 | 5535 ft | 265 kts | 88° |
| 2026-05-05 17:09 | 46.06404 | 14.68396 | 5232 ft | 264 kts | 47° |
| 2026-05-05 17:09 | 46.07893 | 14.69793 | 4945 ft | 255 kts | 8° |
| 2026-05-05 17:09 | 46.09550 | 14.69579 | 4755 ft | 231 kts | 328° |
| 2026-05-05 17:09 | 46.10767 | 14.68224 | 4513 ft | 217 kts | 306° |
| 2026-05-05 17:10 | 46.11722 | 14.66596 | 4279 ft | 209 kts | 303° |
| 2026-05-05 17:10 | 46.12577 | 14.65003 | 4185 ft | 192 kts | 301° |
| 2026-05-05 17:10 | 46.13361 | 14.63467 | 3947 ft | 187 kts | 301° |
| 2026-05-05 17:10 | 46.14121 | 14.61968 | 3695 ft | 182 kts | 301° |
| 2026-05-05 17:11 | 46.14858 | 14.60516 | 3467 ft | 175 kts | 301° |
| 2026-05-05 17:11 | 46.15553 | 14.59149 | 3252 ft | 165 kts | 301° |
| 2026-05-05 17:11 | 46.16220 | 14.57837 | 3069 ft | 158 kts | 301° |
| 2026-05-05 17:11 | 46.16857 | 14.56583 | 2844 ft | 154 kts | 301° |
| 2026-05-05 17:12 | 46.17481 | 14.55356 | 2625 ft | 149 kts | 301° |
| 2026-05-05 17:12 | 46.18096 | 14.54136 | 2363 ft | 153 kts | 302° |
| 2026-05-05 17:12 | 46.18720 | 14.52912 | 2175 ft | 151 kts | 303° |
| 2026-05-05 17:12 | 46.19341 | 14.51696 | 1979 ft | 149 kts | 304° |
| 2026-05-05 17:13 | 46.19946 | 14.50502 | 1746 ft | 148 kts | 305° |
| 2026-05-05 17:13 | 46.20550 | 14.49315 | 1564 ft | 145 kts | 306° |
| 2026-05-05 17:13 | 46.21150 | 14.48146 | 1369 ft | 144 kts | 304° |
| 2026-05-05 17:13 | 46.21745 | 14.46979 | 1216 ft | 137 kts | 306° |
| 2026-05-05 17:14 | 46.22178 | 14.46132 | 1242 ft | 73 kts | 306° |
| 2026-05-05 17:14 | 46.22373 | 14.45752 | 1249 ft | 35 kts | 307° |
| 2026-05-05 17:14 | 46.22518 | 14.45499 | 1261 ft | 30 kts | 315° |
| 2026-05-05 17:14 | 46.22627 | 14.45394 | 1258 ft | 14 kts | 338° |
| 2026-05-05 17:15 | 46.22718 | 14.45342 | 1258 ft | 14 kts | 339° |
| 2026-05-05 17:15 | 46.22809 | 14.45317 | 1257 ft | 13 kts | 355° |
| 2026-05-05 17:15 | 46.22889 | 14.45365 | 1260 ft | 13 kts | 36° |
| 2026-05-05 17:15 | 46.22957 | 14.45394 | 1262 ft | 9 kts | 324° |
| 2026-05-05 17:16 | 46.23001 | 14.45392 | 1261 ft | 7 kts | 38° |
| 2026-05-05 17:16 | 46.23025 | 14.45417 | 1257 ft | 3 kts | 36° |
| 2026-05-05 17:16 | 46.23027 | 14.45419 | 1257 ft | 0 kts | 36° |